createdAt,value
2023-03-01T06:03:56.790Z,2.50
2023-03-01T06:09:00.406Z,2.50
2023-03-01T06:14:04.353Z,2.50
2023-03-01T06:19:09.179Z,2.50
2023-03-01T06:24:12.739Z,2.50
2023-03-01T06:29:16.696Z,2.60
2023-03-01T06:34:22.790Z,2.50
2023-03-01T06:39:26.449Z,2.50
2023-03-01T06:44:30.227Z,2.50
2023-03-01T06:49:35.108Z,2.40
2023-03-01T06:54:38.589Z,2.50
2023-03-01T06:59:42.065Z,2.40
2023-03-01T07:04:47.069Z,2.50
2023-03-01T07:09:51.656Z,2.50
2023-03-01T07:14:55.192Z,2.50
2023-03-01T07:20:00.108Z,2.50
2023-03-01T07:25:03.654Z,2.50
2023-03-01T07:30:08.808Z,2.60
2023-03-01T07:35:13.856Z,2.50
2023-03-01T07:40:17.779Z,2.50
2023-03-01T07:45:21.465Z,2.60
2023-03-01T07:50:26.454Z,2.60
2023-03-01T07:55:30.011Z,2.70
2023-03-01T08:00:33.524Z,2.80
2023-03-01T08:05:38.410Z,2.90
2023-03-01T08:10:41.989Z,3.00
2023-03-01T08:15:45.522Z,3.20
2023-03-01T08:20:50.414Z,3.30
2023-03-01T08:25:53.965Z,3.50
2023-03-01T08:30:57.506Z,3.70
2023-03-01T08:36:09.110Z,3.70
2023-03-01T08:41:12.737Z,3.90
2023-03-01T08:46:16.396Z,3.90
2023-03-01T08:51:22.260Z,4.20
2023-03-01T08:56:25.880Z,4.30
2023-03-01T09:01:29.404Z,4.40
2023-03-01T09:06:35.414Z,4.60
2023-03-01T09:11:39.005Z,4.80
2023-03-01T09:16:42.643Z,5.00
2023-03-01T09:21:53.160Z,5.20
2023-03-01T09:26:57.712Z,5.50
2023-03-01T09:32:01.679Z,6.00
2023-03-01T09:37:06.609Z,6.50
2023-03-01T09:42:14.914Z,7.10
2023-03-01T09:47:21.857Z,7.70
2023-03-01T09:52:32.929Z,8.30
2023-03-01T09:57:43.517Z,8.90
2023-03-01T10:02:50.848Z,9.40
2023-03-01T10:08:04.531Z,9.80
2023-03-01T10:13:17.162Z,10.30
2023-03-01T10:18:24.056Z,10.70
2023-03-01T10:23:30.902Z,10.90
2023-03-01T10:28:46.794Z,11.00
2023-03-01T10:33:55.880Z,11.30
2023-03-01T10:39:01.069Z,11.70
2023-03-01T10:44:06.376Z,11.90
2023-03-01T10:49:16.346Z,12.00
2023-03-01T10:54:24.601Z,12.20
2023-03-01T10:59:30.727Z,12.60
2023-03-01T11:04:34.461Z,12.80
2023-03-01T11:09:39.498Z,12.90
2023-03-01T11:14:50.200Z,13.20
2023-03-01T11:20:07.654Z,13.70
2023-03-01T11:25:16.302Z,14.00
2023-03-01T11:30:25.083Z,14.30
2023-03-01T11:35:30.648Z,14.60
2023-03-01T11:40:41.175Z,14.90
2023-03-01T11:46:20.731Z,15.20
2023-03-01T11:51:31.866Z,15.50
2023-03-01T11:56:42.718Z,15.70
2023-03-01T12:01:59.610Z,15.70
2023-03-01T12:07:10.423Z,15.80
2023-03-01T12:12:39.677Z,15.60
2023-03-01T12:18:00.671Z,15.50
2023-03-01T12:23:40.627Z,15.60
2023-03-01T12:28:59.044Z,15.90
2023-03-01T12:34:11.374Z,16.10
2023-03-01T12:39:31.537Z,16.30
2023-03-01T12:44:58.434Z,16.50
2023-03-01T12:50:05.137Z,16.70
2023-03-01T12:55:27.345Z,16.50
2023-03-01T13:00:37.933Z,16.30
2023-03-01T13:05:49.260Z,16.30
2023-03-01T13:10:57.022Z,16.50
2023-03-01T13:16:23.483Z,16.80
2023-03-01T13:21:33.770Z,17.20
2023-03-01T13:27:20.082Z,17.50
2023-03-01T13:32:38.110Z,17.40
2023-03-01T13:37:46.802Z,17.40
2023-03-01T13:43:03.145Z,17.20
2023-03-01T13:48:17.287Z,17.00
2023-03-01T13:53:23.515Z,16.70
2023-03-01T13:58:29.643Z,16.60
2023-03-01T14:03:42.710Z,16.60
2023-03-01T14:08:47.634Z,16.40
2023-03-01T14:14:03.510Z,16.30
2023-03-01T14:19:31.154Z,16.30
2023-03-01T14:24:40.434Z,16.40
2023-03-01T14:29:44.175Z,16.20
2023-03-01T14:34:51.941Z,16.10
2023-03-01T14:39:56.619Z,16.10
2023-03-01T14:45:02.487Z,16.10
2023-03-01T14:50:12.010Z,15.90
2023-03-01T14:55:19.277Z,15.70
2023-03-01T15:00:26.344Z,15.70
2023-03-01T15:05:33.015Z,15.60
2023-03-01T15:10:38.406Z,15.30
2023-03-01T15:15:44.620Z,15.40
2023-03-01T15:20:50.311Z,15.10
2023-03-01T15:25:58.347Z,14.80
2023-03-01T15:31:05.367Z,14.40
2023-03-01T15:36:34.034Z,13.90
2023-03-01T15:41:49.257Z,13.60
2023-03-01T15:46:52.956Z,13.40
2023-03-01T15:51:57.928Z,13.10
2023-03-01T15:57:01.448Z,12.90
2023-03-01T16:02:10.373Z,12.50
2023-03-01T16:07:15.336Z,12.20
2023-03-01T16:12:21.431Z,11.90
2023-03-01T16:17:25.018Z,11.70
2023-03-01T16:22:30.236Z,11.40
2023-03-01T16:27:33.756Z,11.10
2023-03-01T16:32:40.400Z,10.90
2023-03-01T16:37:45.889Z,10.80
2023-03-01T16:42:49.620Z,10.60
2023-03-01T16:47:55.781Z,10.50
2023-03-01T16:53:01.628Z,10.30
2023-03-01T16:58:05.416Z,10.20
2023-03-01T17:03:09.160Z,10.10
2023-03-01T17:08:14.043Z,9.90
2023-03-01T17:13:17.851Z,9.70
2023-03-01T17:18:21.382Z,9.60
2023-03-01T17:23:26.416Z,9.50
2023-03-01T17:28:32.612Z,9.30
2023-03-01T17:33:36.201Z,9.10
2023-03-01T17:38:41.101Z,9.00
2023-03-01T17:43:44.718Z,8.80
2023-03-01T17:48:49.731Z,8.70
2023-03-01T17:53:54.672Z,8.60
2023-03-01T17:58:58.251Z,8.50
2023-03-01T18:04:01.771Z,8.40
2023-03-01T18:09:07.336Z,8.30
2023-03-01T18:14:10.826Z,8.20
2023-03-01T18:19:14.400Z,8.10
2023-03-01T18:24:19.285Z,8.00
2023-03-01T18:29:22.816Z,8.10
2023-03-01T18:34:26.614Z,7.90
2023-03-01T18:39:31.709Z,7.90
2023-03-01T18:44:35.285Z,7.80
2023-03-01T18:49:38.890Z,7.80
2023-03-01T18:54:43.799Z,7.70
2023-03-01T18:59:47.361Z,7.60
2023-03-01T19:04:51.689Z,7.50
2023-03-01T19:09:56.658Z,7.50
2023-03-01T19:15:00.163Z,7.60
2023-03-01T19:20:03.982Z,7.50
2023-03-01T19:25:10.063Z,7.50
2023-03-01T19:30:14.342Z,7.40
2023-03-01T19:35:18.136Z,7.30
2023-03-01T19:40:23.152Z,7.30
2023-03-01T19:45:33.278Z,7.30
2023-03-01T19:50:38.443Z,7.30
2023-03-01T19:55:43.716Z,7.30
2023-03-01T20:00:48.491Z,7.40
2023-03-01T20:05:52.052Z,7.40
2023-03-01T20:11:03.708Z,7.40
2023-03-01T20:16:08.956Z,7.40
2023-03-01T20:21:23.430Z,7.30
2023-03-01T20:26:29.746Z,7.30
2023-03-01T20:31:33.471Z,7.20
2023-03-01T20:36:38.427Z,7.10
2023-03-01T20:41:43.683Z,7.10
2023-03-01T20:51:51.145Z,6.90
2023-03-01T20:56:56.262Z,6.80
2023-03-01T21:01:59.842Z,6.60
2023-03-01T21:07:03.363Z,6.60
2023-03-01T21:12:08.338Z,6.60
2023-03-01T21:17:13.851Z,6.50
2023-03-01T21:22:18.174Z,6.40
2023-03-01T21:27:22.826Z,6.40
2023-03-01T21:32:26.401Z,6.40
2023-03-01T21:37:30.021Z,6.30
2023-03-01T21:42:36.470Z,6.30
2023-03-01T21:47:40.341Z,6.30
2023-03-01T21:52:43.934Z,6.20
2023-03-01T21:57:48.814Z,6.20
2023-03-01T22:02:58.241Z,6.10
2023-03-01T22:08:02.234Z,6.00
2023-03-01T22:13:07.086Z,5.90
2023-03-01T22:18:11.844Z,5.80
2023-03-01T22:23:15.368Z,5.70
2023-03-01T22:28:20.550Z,5.60
2023-03-01T22:33:24.468Z,5.60
2023-03-01T22:38:28.055Z,5.50
2023-03-01T22:43:34.066Z,5.40
2023-03-01T22:48:37.559Z,5.30
2023-03-01T22:53:41.125Z,5.20
2023-03-01T22:58:46.175Z,5.10
2023-03-01T23:03:50.295Z,5.10
2023-03-01T23:08:56.148Z,5.00
2023-03-01T23:14:01.144Z,5.00
2023-03-01T23:19:05.542Z,4.90
2023-03-01T23:24:09.609Z,4.80
2023-03-01T23:29:14.519Z,4.70
